Time;durP1;ratioP1;P1;durP2;ratioP2;P2;SDS_P1;SDS_P2;PMS_P1;PMS_P2;Temp;Humidity;BMP_temperature;BMP_pressure;BME280_temperature;BME280_humidity;BME280_pressure;Samples;Min_cycle;Max_cycle;Signal;HPM_P1;HPM_P2
2023/10/04 00:01:48;;;;;;;2.03;1.52;;;;;;;;;;5094675;28;20528;-29
2023/10/04 00:04:16;;;;;;;3.70;1.35;;;18.10;78.80;;;;;;5094558;28;20079;-30
2023/10/04 00:06:43;;;;;;;2.80;1.30;;;20.10;88.00;;;;;;5094411;28;20592;-32
2023/10/04 00:09:10;;;;;;;2.65;1.35;;;19.50;81.40;;;;;;5094107;28;20105;-30
2023/10/04 00:11:37;;;;;;;2.75;1.30;;;19.70;84.90;;;;;;5094753;28;20059;-31
2023/10/04 00:14:04;;;;;;;2.88;1.40;;;19.20;71.90;;;;;;5094501;28;20055;-29
2023/10/04 00:16:32;;;;;;;3.17;1.50;;;19.00;87.20;;;;;;5094313;28;20131;-31
2023/10/04 00:18:59;;;;;;;2.05;1.23;;;19.10;87.50;;;;;;5100744;28;20055;-30
2023/10/04 00:21:28;;;;;;;3.70;1.30;;;19.20;69.40;;;;;;5077001;28;20074;-28
2023/10/04 00:23:56;;;;;;;1.98;1.17;;;19.00;80.50;;;;;;5090341;28;20059;-30
2023/10/04 00:26:23;;;;;;;2.70;1.30;;;18.80;80.60;;;;;;5093717;28;20485;-34
2023/10/04 00:28:51;;;;;;;3.00;1.40;;;;;;;;;;5094089;28;20557;-31
2023/10/04 00:31:17;;;;;;;2.28;1.33;;;19.30;87.30;;;;;;5094109;28;20048;-30
2023/10/04 00:33:44;;;;;;;1.85;1.10;;;;;;;;;;5094126;28;20135;-30
2023/10/04 00:36:13;;;;;;;2.50;1.40;;;19.20;87.50;;;;;;5092838;28;20079;-30
2023/10/04 00:38:41;;;;;;;2.78;1.33;;;19.20;69.40;;;;;;5093584;28;20566;-33
2023/10/04 00:41:11;;;;;;;2.80;1.40;;;19.90;87.50;;;;;;5093829;28;20055;-32
2023/10/04 00:43:49;;;;;;;2.53;1.30;;;19.20;87.60;;;;;;5094320;28;20056;-32
2023/10/04 00:46:18;;;;;;;2.35;1.20;;;18.10;86.90;;;;;;5093629;28;20058;-31
2023/10/04 00:48:45;;;;;;;3.25;1.55;;;;;;;;;;5093808;28;20127;-29
2023/10/04 00:51:15;;;;;;;2.58;1.20;;;18.80;87.00;;;;;;5093529;28;20129;-32
2023/10/04 00:53:44;;;;;;;3.65;1.40;;;19.10;69.30;;;;;;5093997;28;20435;-30
2023/10/04 00:56:12;;;;;;;2.15;1.20;;;19.10;85.00;;;;;;5093504;28;20136;-32
2023/10/04 00:58:38;;;;;;;2.00;1.10;;;17.90;86.50;;;;;;5093667;28;20075;-31
2023/10/04 01:01:06;;;;;;;2.00;1.20;;;;;;;;;;5093311;28;20135;-31
2023/10/04 01:03:35;;;;;;;3.28;1.40;;;17.90;86.40;;;;;;5093061;28;20048;-31
2023/10/04 01:06:05;;;;;;;4.40;1.38;;;18.80;87.20;;;;;;5093575;28;20040;-31
2023/10/04 01:08:32;;;;;;;2.55;1.10;;;19.30;80.00;;;;;;5093386;28;20075;-28
2023/10/04 01:11:00;;;;;;;2.67;1.40;;;18.80;86.90;;;;;;5093027;28;20142;-33
2023/10/04 01:13:27;;;;;;;3.20;1.30;;;18.90;87.00;;;;;;5093256;28;20140;-30
2023/10/04 01:15:55;;;;;;;2.33;1.30;;;20.20;87.60;;;;;;5092808;28;20059;-30
2023/10/04 01:18:22;;;;;;;3.90;1.27;;;;;;;;;;5093011;28;20067;-29
2023/10/04 01:20:51;;;;;;;3.13;1.52;;;18.70;87.10;;;;;;5093208;28;20048;-31
2023/10/04 01:23:19;;;;;;;2.15;1.20;;;18.50;69.00;;;;;;5092870;28;20048;-33
2023/10/04 01:25:47;;;;;;;2.13;1.50;;;19.10;69.30;;;;;;5092778;28;20471;-31
2023/10/04 01:28:17;;;;;;;1.88;1.20;;;19.10;69.40;;;;;;5093421;28;20059;-31
2023/10/04 01:30:44;;;;;;;3.08;1.23;;;19.20;87.50;;;;;;5092894;28;20062;-32
2023/10/04 01:33:15;;;;;;;2.38;1.30;;;18.40;86.60;;;;;;5093106;28;20131;-30
2023/10/04 01:35:42;;;;;;;2.08;1.20;;;18.20;87.00;;;;;;5092708;28;20060;-31
2023/10/04 01:38:09;;;;;;;2.50;1.20;;;19.00;87.40;;;;;;5092408;28;20044;-30
2023/10/04 01:40:39;;;;;;;3.58;1.35;;;19.20;87.20;;;;;;5092700;28;20050;-32
2023/10/04 01:43:14;;;;;;;2.03;1.10;;;19.40;87.70;;;;;;5092687;28;20052;-30
2023/10/04 01:45:43;;;;;;;2.38;1.30;;;18.90;86.90;;;;;;5092608;28;20428;-32
2023/10/04 01:48:10;;;;;;;4.30;1.40;;;18.60;86.80;;;;;;5092601;28;20151;-31
2023/10/04 01:50:37;;;;;;;2.28;1.20;;;;;;;;;;5092596;28;20135;-30
2023/10/04 01:53:05;;;;;;;1.70;1.20;;;18.80;87.30;;;;;;5092766;28;20139;-31
2023/10/04 01:55:31;;;;;;;3.83;1.35;;;19.30;84.40;;;;;;5092307;28;20058;-31
2023/10/04 01:57:59;;;;;;;2.75;1.20;;;18.60;86.90;;;;;;5092882;28;20056;-32
2023/10/04 02:00:28;;;;;;;3.83;1.50;;;18.60;87.20;;;;;;5091917;28;20620;-34
2023/10/04 02:02:54;;;;;;;2.85;1.30;;;19.00;87.20;;;;;;5091927;28;20051;-31
2023/10/04 02:05:28;;;;;;;2.40;1.30;;;19.40;77.80;;;;;;5091840;28;20094;-32
2023/10/04 02:07:56;;;;;;;1.88;1.25;;;19.40;87.70;;;;;;5091924;28;20442;-31
2023/10/04 02:10:23;;;;;;;3.17;1.38;;;;;;;;;;5091535;28;20109;-31
2023/10/04 02:12:53;;;;;;;2.72;1.30;;;19.10;87.40;;;;;;5092052;28;20054;-30
2023/10/04 02:15:21;;;;;;;4.60;1.38;;;18.00;87.00;;;;;;5091221;28;20051;-30
2023/10/04 02:17:49;;;;;;;3.08;1.48;;;20.10;87.70;;;;;;5088992;28;20143;-31
2023/10/04 02:20:28;;;;;;;2.70;1.25;;;18.80;87.00;;;;;;5091676;28;20493;-26
2023/10/04 02:22:55;;;;;;;3.47;1.50;;;;;;;;;;5090127;28;20055;-26
2023/10/04 02:25:22;;;;;;;3.50;1.20;;;18.90;87.40;;;;;;5091661;28;20052;-25
2023/10/04 02:27:49;;;;;;;2.95;1.20;;;19.40;87.70;;;;;;5091933;28;20123;-26
2023/10/04 02:30:21;;;;;;;3.65;1.25;;;;;;;;;;5091633;28;20130;-31
2023/10/04 02:32:50;;;;;;;3.15;1.38;;;19.10;75.70;;;;;;5089098;28;20044;-28
2023/10/04 02:35:26;;;;;;;2.70;1.20;;;18.90;86.90;;;;;;5091429;28;20446;-26
2023/10/04 02:37:54;;;;;;;2.40;1.23;;;19.10;87.10;;;;;;5089508;28;20040;-25
2023/10/04 02:40:22;;;;;;;3.00;1.17;;;19.70;87.40;;;;;;5091580;28;20141;-26
2023/10/04 02:42:49;;;;;;;3.47;1.30;;;18.70;87.00;;;;;;5089082;28;20511;-26
2023/10/04 02:45:19;;;;;;;2.55;1.13;;;18.90;87.00;;;;;;5090920;28;20130;-25
2023/10/04 02:47:48;;;;;;;2.60;1.17;;;18.80;87.50;;;;;;5091402;28;20093;-25
2023/10/04 02:50:17;;;;;;;2.67;1.30;;;18.80;72.60;;;;;;5091355;28;20044;-29
2023/10/04 02:52:44;;;;;;;4.05;1.33;;;18.80;82.20;;;;;;5091170;28;20493;-25
2023/10/04 02:55:14;;;;;;;2.80;1.27;;;;;;;;;;5091081;28;20496;-30
2023/10/04 02:57:41;;;;;;;3.35;1.23;;;18.70;87.10;;;;;;5091809;28;20083;-26
2023/10/04 03:00:12;;;;;;;2.00;1.30;;;19.10;87.10;;;;;;5091457;28;20107;-26
2023/10/04 03:02:39;;;;;;;2.15;1.08;;;;;;;;;;5092036;28;20055;-31
2023/10/04 03:05:12;;;;;;;3.20;1.48;;;18.30;85.60;;;;;;5091528;28;20190;-26
2023/10/04 03:07:41;;;;;;;2.80;1.33;;;18.90;69.20;;;;;;5089014;28;20466;-25
2023/10/04 03:10:10;;;;;;;3.03;1.30;;;18.90;86.90;;;;;;5071552;28;20080;-26
2023/10/04 03:12:37;;;;;;;2.10;1.10;;;19.80;69.60;;;;;;5071260;28;20102;-30
2023/10/04 03:15:06;;;;;;;3.90;1.15;;;18.20;86.60;;;;;;5070972;28;20127;-26
2023/10/04 03:17:34;;;;;;;4.45;1.48;;;;;;;;;;5071152;28;20131;-30
2023/10/04 03:20:01;;;;;;;1.90;1.10;;;18.90;73.70;;;;;;5071370;28;20048;-26
2023/10/04 03:22:29;;;;;;;4.45;1.40;;;19.20;87.20;;;;;;5075725;28;20382;-26
2023/10/04 03:24:57;;;;;;;4.13;1.50;;;18.90;69.10;;;;;;5091223;28;20123;-33
2023/10/04 03:27:24;;;;;;;2.70;1.25;;;;;;;;;;5092334;28;20459;-33
2023/10/04 03:29:53;;;;;;;3.13;1.30;;;17.80;86.80;;;;;;5095443;28;20074;-26
2023/10/04 03:32:20;;;;;;;2.92;1.25;;;18.50;76.90;;;;;;5095338;28;20052;-27
2023/10/04 03:34:47;;;;;;;2.78;1.25;;;18.40;86.70;;;;;;5095541;28;20131;-26
2023/10/04 03:37:20;;;;;;;2.42;1.23;;;;;;;;;;5094226;28;20462;-29
2023/10/04 03:39:47;;;;;;;2.63;1.17;;;19.10;87.50;;;;;;5094419;28;20566;-25
2023/10/04 03:42:16;;;;;;;3.05;1.38;;;18.90;69.10;;;;;;5095121;28;20048;-30
2023/10/04 03:44:42;;;;;;;2.90;1.15;;;18.90;82.50;;;;;;5094964;28;20501;-27
2023/10/04 03:47:09;;;;;;;3.05;1.50;;;18.20;86.70;;;;;;5095054;28;20075;-26
2023/10/04 03:49:36;;;;;;;2.70;1.10;;;18.90;87.30;;;;;;5094643;28;20444;-26
2023/10/04 03:52:04;;;;;;;3.60;1.20;;;19.70;87.50;;;;;;5094890;28;20051;-27
2023/10/04 03:54:30;;;;;;;2.72;1.27;;;19.90;73.70;;;;;;5094670;28;20070;-28
2023/10/04 03:56:57;;;;;;;3.28;1.20;;;;;;;;;;5094787;28;20127;-26
2023/10/04 03:59:26;;;;;;;3.47;1.20;;;18.00;86.90;;;;;;5094652;28;20048;-25
2023/10/04 04:01:53;;;;;;;4.05;1.42;;;18.50;75.20;;;;;;5094612;28;20050;-28
2023/10/04 04:04:20;;;;;;;1.83;1.10;;;19.10;72.20;;;;;;5094585;28;20044;-25
2023/10/04 04:06:49;;;;;;;3.55;1.30;;;;;;;;;;5094384;28;20124;-29
2023/10/04 04:09:16;;;;;;;3.28;1.40;;;19.20;87.50;;;;;;5094756;28;20083;-26
2023/10/04 04:11:43;;;;;;;2.70;1.38;;;;;;;;;;5094534;28;20127;-29
2023/10/04 04:14:10;;;;;;;3.03;1.30;;;19.10;87.40;;;;;;5094647;28;20123;-27
2023/10/04 04:16:38;;;;;;;2.92;1.33;;;19.90;78.80;;;;;;5093754;28;20571;-26
2023/10/04 04:19:07;;;;;;;3.00;1.30;;;18.40;75.90;;;;;;5094589;28;20143;-27
2023/10/04 04:21:34;;;;;;;4.05;1.17;;;;;;;;;;5094216;28;20386;-27
2023/10/04 04:24:02;;;;;;;2.80;1.13;;;;;;;;;;5094462;28;20117;-31
2023/10/04 04:26:29;;;;;;;3.08;1.40;;;18.60;86.90;;;;;;5094032;28;20051;-26
2023/10/04 04:28:56;;;;;;;3.65;1.40;;;18.70;79.70;;;;;;5094298;28;20048;-26
2023/10/04 04:31:23;;;;;;;2.38;1.25;;;;;;;;;;5094137;28;20048;-26
2023/10/04 04:33:51;;;;;;;3.28;1.30;;;18.90;69.10;;;;;;5094297;28;20127;-30
2023/10/04 04:36:25;;;;;;;2.95;1.27;;;;;;;;;;5093278;28;20136;-34
2023/10/04 04:38:53;;;;;;;2.42;1.23;;;18.80;87.20;;;;;;5093165;28;20413;-26
2023/10/04 04:41:25;;;;;;;1.88;1.10;;;18.90;77.10;;;;;;5094019;28;20055;-28
2023/10/04 04:43:52;;;;;;;2.13;1.05;;;;;;;;;;5094155;28;20055;-27
2023/10/04 04:46:20;;;;;;;3.25;1.48;;;18.30;87.20;;;;;;5093739;28;20089;-26
2023/10/04 04:48:47;;;;;;;2.65;1.02;;;18.80;87.30;;;;;;5093687;28;20044;-26
2023/10/04 04:51:15;;;;;;;4.10;1.30;;;18.50;69.00;;;;;;5093967;28;20083;-25
2023/10/04 04:53:42;;;;;;;4.85;1.50;;;;;;;;;;5093640;28;20163;-32
2023/10/04 04:56:12;;;;;;;2.83;1.30;;;18.90;87.00;;;;;;5093538;28;20447;-26
2023/10/04 04:58:39;;;;;;;3.05;1.38;;;18.70;87.30;;;;;;5093104;28;20088;-26
2023/10/04 05:01:08;;;;;;;2.13;1.27;;;19.60;83.50;;;;;;5093600;28;20048;-26
2023/10/04 05:03:35;;;;;;;4.00;1.40;;;18.30;86.90;;;;;;5093712;28;20146;-25
2023/10/04 05:06:03;;;;;;;2.95;1.30;;;19.00;87.40;;;;;;5093602;28;20044;-26
2023/10/04 05:08:31;;;;;;;2.95;1.30;;;19.30;69.50;;;;;;5093395;28;20093;-27
2023/10/04 05:10:59;;;;;;;2.17;1.27;;;18.70;87.10;;;;;;5093402;28;20094;-26
2023/10/04 05:13:26;;;;;;;2.97;1.35;;;19.00;87.20;;;;;;5093180;28;20059;-26
2023/10/04 05:15:54;;;;;;;2.95;1.25;;;;;;;;;;5092906;28;20109;-29
2023/10/04 05:18:22;;;;;;;3.85;1.60;;;;;;;;;;5093058;28;20500;-30
2023/10/04 05:20:50;;;;;;;3.03;1.25;;;17.80;73.80;;;;;;5093361;28;20052;-26
2023/10/04 05:23:18;;;;;;;2.90;1.33;;;17.50;78.70;;;;;;5093296;28;20074;-27
2023/10/04 05:25:46;;;;;;;3.65;1.40;;;18.70;69.20;;;;;;5092570;28;20139;-26
2023/10/04 05:28:13;;;;;;;3.20;1.40;;;;;;;;;;5093025;28;20138;-29
2023/10/04 05:30:42;;;;;;;3.78;1.60;;;18.50;87.00;;;;;;5093124;28;20130;-27
2023/10/04 05:33:10;;;;;;;4.07;1.13;;;;;;;;;;5093198;28;20122;-28
2023/10/04 05:35:37;;;;;;;3.25;1.27;;;;;;;;;;5092439;28;20048;-28
2023/10/04 05:38:06;;;;;;;3.97;1.20;;;19.90;87.70;;;;;;5092612;28;20055;-32
2023/10/04 05:40:34;;;;;;;3.55;1.40;;;18.20;87.20;;;;;;5092576;28;20058;-30
2023/10/04 05:43:03;;;;;;;4.63;1.30;;;18.60;87.40;;;;;;5093051;28;20126;-30
2023/10/04 05:45:31;;;;;;;2.70;1.35;;;;;;;;;;5092274;28;20048;-29
2023/10/04 05:47:59;;;;;;;2.38;1.27;;;18.60;76.40;;;;;;5092730;28;20079;-30
2023/10/04 05:50:26;;;;;;;2.75;1.40;;;;;;;;;;5092564;28;20048;-29
2023/10/04 05:52:53;;;;;;;2.70;1.20;;;18.80;69.60;;;;;;5074677;28;20483;-27
2023/10/04 05:55:20;;;;;;;3.75;1.30;;;18.80;74.40;;;;;;5089021;28;20067;-29
2023/10/04 05:57:48;;;;;;;3.63;1.52;;;19.00;87.30;;;;;;5094219;28;20119;-30
2023/10/04 06:00:24;;;;;;;2.35;1.23;;;19.30;87.30;;;;;;5092305;28;20512;-31
2023/10/04 06:02:52;;;;;;;4.45;1.40;;;18.30;87.30;;;;;;5092486;28;20126;-31
2023/10/04 06:05:20;;;;;;;2.30;1.33;;;19.10;80.80;;;;;;5092055;28;20051;-30
2023/10/04 06:07:48;;;;;;;4.38;1.80;;;18.70;73.20;;;;;;5092114;28;20119;-29
2023/10/04 06:10:16;;;;;;;2.03;1.13;;;18.00;69.10;;;;;;5093764;28;20416;-30
2023/10/04 06:12:44;;;;;;;3.00;1.20;;;18.00;84.90;;;;;;5091687;28;20070;-31
2023/10/04 06:15:13;;;;;;;2.88;1.48;;;18.70;69.00;;;;;;5091244;28;20055;-29
2023/10/04 06:17:42;;;;;;;3.28;1.60;;;18.90;87.10;;;;;;5091729;28;20055;-29
2023/10/04 06:22:59;;;;;;;2.83;1.50;;;18.40;69.00;;;;;;5092007;28;20408;-28
2023/10/04 06:25:26;;;;;;;3.83;1.55;;;18.40;79.00;;;;;;5091643;28;20408;-31
2023/10/04 06:27:53;;;;;;;3.67;1.48;;;18.70;68.90;;;;;;5092179;28;20531;-28
2023/10/04 06:30:23;;;;;;;2.72;1.25;;;18.10;86.70;;;;;;5092098;28;20047;-29
2023/10/04 06:32:52;;;;;;;3.28;1.35;;;18.30;86.70;;;;;;5092056;28;20131;-31
2023/10/04 06:35:22;;;;;;;3.90;1.38;;;;;;;;;;5080119;28;20498;-30
2023/10/04 06:37:50;;;;;;;2.35;1.20;;;18.70;73.30;;;;;;5087760;28;20519;-31
2023/10/04 06:40:19;;;;;;;1.98;1.27;;;19.60;87.50;;;;;;5091998;28;20151;-32
2023/10/04 06:42:45;;;;;;;4.07;1.30;;;19.60;71.10;;;;;;5092066;28;20122;-33
2023/10/04 06:45:13;;;;;;;3.45;1.33;;;18.90;69.20;;;;;;5091669;28;20134;-29
2023/10/04 06:47:43;;;;;;;3.35;1.40;;;19.00;77.10;;;;;;5091987;28;20088;-32
2023/10/04 06:50:14;;;;;;;3.35;1.35;;;18.80;86.90;;;;;;5091920;28;20048;-33
2023/10/04 06:52:42;;;;;;;3.22;1.23;;;20.00;87.80;;;;;;5090655;28;20055;-34
2023/10/04 06:55:10;;;;;;;2.70;1.30;;;18.90;86.70;;;;;;5092032;28;20409;-31
2023/10/04 06:57:37;;;;;;;2.90;1.38;;;;;;;;;;5091143;28;20488;-32
2023/10/04 07:00:12;;;;;;;2.65;1.50;;;19.50;68.80;;;;;;5091713;28;20086;-30
2023/10/04 07:02:41;;;;;;;3.00;1.20;;;20.60;86.70;;;;;;5093514;28;20105;-32
2023/10/04 07:05:08;;;;;;;2.80;1.40;;;19.20;85.80;;;;;;5095939;28;20679;-34
2023/10/04 07:07:36;;;;;;;5.13;1.60;;;21.00;86.70;;;;;;5095934;28;20070;-33
2023/10/04 07:10:06;;;;;;;2.22;1.27;;;20.40;85.90;;;;;;5095752;28;20052;-34
2023/10/04 07:12:33;;;;;;;3.25;1.20;;;19.70;85.60;;;;;;5096286;28;20169;-33
2023/10/04 07:15:00;;;;;;;1.83;1.20;;;;;;;;;;5095590;28;20127;-31
2023/10/04 07:17:29;;;;;;;2.03;1.25;;;20.50;85.50;;;;;;5095689;28;20131;-32
2023/10/04 07:19:57;;;;;;;3.35;1.40;;;20.50;67.50;;;;;;5095666;28;20058;-30
2023/10/04 07:22:29;;;;;;;3.90;1.25;;;;;;;;;;5095669;28;20055;-29
2023/10/04 07:24:58;;;;;;;4.53;1.75;;;20.80;85.20;;;;;;5095495;28;20044;-32
2023/10/04 07:27:25;;;;;;;2.92;1.42;;;21.20;71.50;;;;;;5095067;28;20520;-28
2023/10/04 07:29:52;;;;;;;2.88;1.27;;;22.00;85.00;;;;;;5095127;28;20044;-26
2023/10/04 07:32:20;;;;;;;2.13;1.35;;;;;;;;;;5095585;28;20048;-26
2023/10/04 07:34:47;;;;;;;3.25;1.40;;;20.60;84.30;;;;;;5095278;28;20044;-26
2023/10/04 07:37:13;;;;;;;4.00;1.80;;;20.90;84.00;;;;;;5094581;28;20094;-26
2023/10/04 07:39:40;;;;;;;4.15;1.40;;;20.80;84.00;;;;;;5095232;28;20127;-27
2023/10/04 07:42:10;;;;;;;4.53;1.55;;;21.00;66.70;;;;;;5094965;28;20489;-27
2023/10/04 07:44:37;;;;;;;4.15;2.03;;;20.80;83.90;;;;;;5095083;28;20131;-27
2023/10/04 07:47:04;;;;;;;3.22;1.30;;;20.80;83.60;;;;;;5094421;28;20086;-27
2023/10/04 07:49:31;;;;;;;3.42;1.60;;;22.00;84.30;;;;;;5094194;28;20083;-28
2023/10/04 07:51:58;;;;;;;6.70;2.80;;;21.90;84.30;;;;;;5093800;28;20052;-28
2023/10/04 07:54:25;;;;;;;5.63;2.63;;;21.90;83.90;;;;;;5094549;28;20445;-27
2023/10/04 07:56:52;;;;;;;9.65;2.90;;;;;;;;;;5094295;28;20489;-28
2023/10/04 07:59:20;;;;;;;9.68;3.78;;;20.70;70.70;;;;;;5094269;28;20446;-27
2023/10/04 08:01:47;;;;;;;12.32;3.90;;;;;;;;;;5093845;28;20124;-27
2023/10/04 08:04:14;;;;;;;11.52;3.38;;;;;;;;;;5093679;28;20127;-27
2023/10/04 08:06:41;;;;;;;9.40;3.45;;;21.00;83.60;;;;;;5098941;28;20124;-27
2023/10/04 08:09:08;;;;;;;9.85;3.70;;;;;;;;;;5100551;28;20039;-29
2023/10/04 08:11:35;;;;;;;14.88;4.03;;;21.10;83.70;;;;;;5102584;28;20547;-32
2023/10/04 08:14:07;;;;;;;10.02;3.30;;;21.60;83.60;;;;;;5102955;28;20620;-33
2023/10/04 08:16:35;;;;;;;9.20;3.08;;;21.30;83.90;;;;;;5101918;28;20130;-33
2023/10/04 08:19:04;;;;;;;12.50;3.38;;;22.20;70.20;;;;;;5102979;28;20047;-35
2023/10/04 08:21:31;;;;;;;8.25;3.03;;;;;;;;;;5101340;28;20097;-32
2023/10/04 08:23:59;;;;;;;7.72;3.03;;;20.10;82.90;;;;;;5104329;28;20134;-36
2023/10/04 08:26:27;;;;;;;9.63;3.35;;;;;;;;;;5102669;28;20040;-28
2023/10/04 08:28:54;;;;;;;10.48;3.33;;;20.50;83.00;;;;;;5104389;28;20075;-34
2023/10/04 08:31:21;;;;;;;9.25;3.65;;;;;;;;;;5104592;28;20052;-31
2023/10/04 08:33:49;;;;;;;8.05;3.33;;;21.00;83.20;;;;;;5102792;28;20147;-32
2023/10/04 08:36:16;;;;;;;9.38;3.45;;;20.80;66.10;;;;;;5093937;28;20050;-36
2023/10/04 08:38:44;;;;;;;6.00;2.80;;;20.00;76.80;;;;;;5093346;28;20123;-34
2023/10/04 08:41:11;;;;;;;7.45;2.83;;;;;;;;;;5091737;28;20052;-29
2023/10/04 08:43:38;;;;;;;6.88;3.13;;;21.20;83.40;;;;;;5093591;28;20130;-32
2023/10/04 08:46:07;;;;;;;7.97;3.05;;;21.10;66.20;;;;;;5093284;28;20151;-29
2023/10/04 08:48:34;;;;;;;9.38;3.33;;;;;;;;;;5093120;28;20043;-33
2023/10/04 08:51:05;;;;;;;7.70;3.15;;;21.10;66.30;;;;;;5092974;28;20131;-34
2023/10/04 08:53:40;;;;;;;7.13;3.25;;;21.00;75.80;;;;;;5093560;28;20139;-33
2023/10/04 08:56:09;;;;;;;6.60;3.03;;;20.80;75.80;;;;;;5092638;28;20421;-32
2023/10/04 08:58:36;;;;;;;6.25;2.85;;;21.00;81.70;;;;;;5093240;28;20127;-32
2023/10/04 09:01:04;;;;;;;8.13;2.85;;;20.80;83.70;;;;;;5093170;28;20056;-33
2023/10/04 09:03:31;;;;;;;6.40;2.80;;;20.90;83.50;;;;;;5093268;28;20071;-34
2023/10/04 09:05:58;;;;;;;6.32;2.88;;;;;;;;;;5092636;28;20131;-31
2023/10/04 09:08:26;;;;;;;5.60;2.63;;;20.60;83.60;;;;;;5087589;28;20127;-34
2023/10/04 09:10:54;;;;;;;6.10;2.80;;;21.40;73.60;;;;;;5092197;28;20123;-30
2023/10/04 09:13:20;;;;;;;7.55;3.15;;;20.90;83.50;;;;;;5092978;28;20047;-33
2023/10/04 09:15:48;;;;;;;6.88;2.70;;;;;;;;;;5092389;28;20132;-32
2023/10/04 09:18:25;;;;;;;7.50;2.90;;;20.90;66.50;;;;;;5091563;28;20056;-30
2023/10/04 09:20:52;;;;;;;5.05;2.40;;;;;;;;;;5092528;28;20560;-30
2023/10/04 09:23:22;;;;;;;7.80;2.97;;;20.70;83.80;;;;;;5092845;28;20044;-30
2023/10/04 09:25:54;;;;;;;6.07;2.85;;;20.90;82.50;;;;;;5091776;28;20066;-31
2023/10/04 09:28:20;;;;;;;6.45;2.92;;;20.50;71.90;;;;;;5093467;28;20048;-28
2023/10/04 09:30:47;;;;;;;5.65;2.45;;;21.20;83.90;;;;;;5093338;28;20079;-25
2023/10/04 09:33:23;;;;;;;5.75;2.55;;;20.20;83.80;;;;;;5092809;28;20135;-26
2023/10/04 09:35:51;;;;;;;5.78;2.70;;;21.00;71.50;;;;;;5092029;28;20143;-30
2023/10/04 09:38:22;;;;;;;5.20;2.35;;;20.50;83.70;;;;;;5092446;28;20101;-26
2023/10/04 09:40:53;;;;;;;5.68;2.50;;;20.70;66.80;;;;;;5092383;28;20135;-30
2023/10/04 09:43:32;;;;;;;5.28;2.63;;;20.50;83.90;;;;;;5092755;28;20075;-25
2023/10/04 09:45:59;;;;;;;5.25;2.60;;;;;;;;;;5092519;28;20059;-30
2023/10/04 09:48:31;;;;;;;6.25;3.03;;;20.80;71.50;;;;;;5092166;28;20123;-26
2023/10/04 09:51:01;;;;;;;8.60;2.92;;;20.60;84.20;;;;;;5092905;28;20130;-26
2023/10/04 09:53:28;;;;;;;7.40;3.25;;;21.00;84.30;;;;;;5092619;28;20127;-26
2023/10/04 09:55:59;;;;;;;6.20;2.50;;;20.70;66.90;;;;;;5092465;28;20051;-29
2023/10/04 09:58:26;;;;;;;8.27;3.28;;;19.40;69.30;;;;;;5092376;28;20055;-26
2023/10/04 10:00:53;;;;;;;6.10;2.75;;;;;;;;;;5091990;28;20126;-27
2023/10/04 10:03:21;;;;;;;5.68;2.53;;;20.80;84.30;;;;;;5090712;28;20126;-26
2023/10/04 10:05:48;;;;;;;6.60;2.78;;;;;;;;;;5091692;28;20071;-30
2023/10/04 10:08:14;;;;;;;7.70;3.40;;;21.10;84.20;;;;;;5092031;28;20134;-27
2023/10/04 10:10:41;;;;;;;5.50;2.40;;;20.30;84.10;;;;;;5089201;28;20040;-26
2023/10/04 10:13:10;;;;;;;6.15;2.72;;;20.70;84.00;;;;;;5091635;28;20055;-26
2023/10/04 10:15:37;;;;;;;4.72;2.70;;;20.30;71.60;;;;;;5091115;28;20123;-32
2023/10/04 10:18:07;;;;;;;5.85;2.78;;;20.70;83.90;;;;;;5089507;28;20055;-35
2023/10/04 10:20:33;;;;;;;7.35;2.60;;;20.50;84.20;;;;;;5090921;28;20680;-37
2023/10/04 10:23:13;;;;;;;7.95;2.72;;;20.10;72.80;;;;;;5094108;28;20135;-32
2023/10/04 10:25:41;;;;;;;6.93;2.60;;;19.60;83.60;;;;;;5095523;28;20055;-33
2023/10/04 10:28:21;;;;;;;6.53;3.22;;;20.30;66.60;;;;;;5092327;28;20142;-29
2023/10/04 10:30:48;;;;;;;4.72;2.55;;;20.60;84.40;;;;;;5092354;28;20052;-32
2023/10/04 10:33:15;;;;;;;4.53;2.50;;;19.50;83.40;;;;;;5091857;28;20055;-35
2023/10/04 10:35:51;;;;;;;5.70;2.90;;;19.50;83.80;;;;;;5091924;28;20044;-38
2023/10/04 10:38:31;;;;;;;7.90;3.10;;;20.30;66.50;;;;;;5071110;28;20052;-29
2023/10/04 10:40:57;;;;;;;9.18;2.97;;;19.40;83.40;;;;;;5086269;28;20134;-33
2023/10/04 10:43:25;;;;;;;6.40;3.20;;;20.30;66.60;;;;;;5091608;28;20504;-31
2023/10/04 10:45:52;;;;;;;5.47;2.38;;;19.60;83.90;;;;;;5093300;28;20131;-32
2023/10/04 10:48:30;;;;;;;7.47;2.90;;;20.30;66.50;;;;;;5100345;28;20139;-32
2023/10/04 10:50:57;;;;;;;6.53;2.80;;;;;;;;;;5094011;28;20067;-33
2023/10/04 10:53:25;;;;;;;4.80;2.38;;;;;;;;;;5088944;28;20381;-34
2023/10/04 10:55:51;;;;;;;6.47;2.50;;;20.30;85.40;;;;;;5081786;28;20047;-36
2023/10/04 10:58:18;;;;;;;8.07;3.10;;;20.20;84.20;;;;;;5089952;28;20142;-36
2023/10/04 11:00:46;;;;;;;8.57;2.72;;;20.00;66.90;;;;;;5090929;28;20072;-30
2023/10/04 11:03:14;;;;;;;7.35;2.92;;;;;;;;;;5086217;28;20097;-32
2023/10/04 11:05:41;;;;;;;4.80;2.70;;;;;;;;;;5078728;28;20406;-26
2023/10/04 11:08:12;;;;;;;7.07;2.70;;;21.20;84.30;;;;;;5082339;28;20040;-33
2023/10/04 11:10:40;;;;;;;6.53;2.60;;;20.50;84.40;;;;;;5088462;28;20492;-35
2023/10/04 11:13:09;;;;;;;6.50;2.70;;;;;;;;;;5098886;28;20039;-33
2023/10/04 11:15:36;;;;;;;8.57;2.97;;;;;;;;;;5100852;28;20092;-30
2023/10/04 11:18:06;;;;;;;7.68;2.97;;;20.20;83.80;;;;;;5100615;28;20040;-33
2023/10/04 11:20:36;;;;;;;6.85;2.80;;;19.60;83.90;;;;;;5093213;28;20485;-34
2023/10/04 11:23:02;;;;;;;5.25;2.67;;;20.40;84.00;;;;;;5091612;28;20059;-36
2023/10/04 11:25:31;;;;;;;7.07;3.08;;;19.90;75.90;;;;;;5087427;28;20044;-32
2023/10/04 11:27:58;;;;;;;6.78;3.00;;;;;;;;;;5090836;28;20121;-30
2023/10/04 11:30:27;;;;;;;10.32;3.65;;;20.50;76.90;;;;;;5091217;28;20084;-35
2023/10/04 11:32:53;;;;;;;8.43;3.10;;;20.20;84.50;;;;;;5091382;28;20135;-34
2023/10/04 11:35:22;;;;;;;6.78;2.50;;;20.60;76.70;;;;;;5090758;28;20099;-31
2023/10/04 11:37:49;;;;;;;5.68;2.83;;;20.40;77.80;;;;;;5089945;28;20127;-33
2023/10/04 11:40:19;;;;;;;5.80;2.95;;;19.70;83.80;;;;;;5091153;28;20120;-37
2023/10/04 11:42:46;;;;;;;5.88;2.38;;;20.50;84.60;;;;;;5091423;28;20051;-33
2023/10/04 11:45:19;;;;;;;5.53;2.50;;;20.20;78.30;;;;;;5091152;28;20082;-31
2023/10/04 11:47:59;;;;;;;9.82;3.13;;;20.30;66.90;;;;;;5091340;28;20493;-30
2023/10/04 11:50:41;;;;;;;5.72;2.40;;;20.00;84.40;;;;;;5076815;28;20477;-35
2023/10/04 11:53:07;;;;;;;9.43;2.78;;;21.30;85.00;;;;;;5087185;28;20454;-35
2023/10/04 11:55:37;;;;;;;6.07;2.70;;;;;;;;;;5100937;28;20136;-36
2023/10/04 11:58:05;;;;;;;8.40;2.65;;;20.20;84.40;;;;;;5094229;28;20067;-36
2023/10/04 12:00:32;;;;;;;9.43;3.28;;;20.00;83.90;;;;;;5094171;28;20044;-34
2023/10/04 12:03:00;;;;;;;9.82;2.85;;;;;;;;;;5094096;28;20584;-31
2023/10/04 12:05:28;;;;;;;4.78;2.75;;;20.30;66.90;;;;;;5094547;28;20071;-26
2023/10/04 12:07:58;;;;;;;7.07;2.50;;;;;;;;;;5093786;28;20059;-29
2023/10/04 12:10:25;;;;;;;7.47;2.65;;;20.30;84.50;;;;;;5094254;28;20048;-27
2023/10/04 12:12:55;;;;;;;6.10;2.38;;;20.70;84.30;;;;;;5094418;28;20119;-27
2023/10/04 12:15:21;;;;;;;6.00;2.90;;;20.40;71.50;;;;;;5091602;28;20409;-28
2023/10/04 12:17:49;;;;;;;6.75;2.60;;;20.10;84.20;;;;;;5093641;28;20072;-26
2023/10/04 12:20:20;;;;;;;5.65;2.67;;;20.10;84.20;;;;;;5093981;28;20127;-28
2023/10/04 12:22:49;;;;;;;6.70;2.80;;;20.20;84.20;;;;;;5093948;28;20386;-27
2023/10/04 12:25:16;;;;;;;6.75;2.70;;;;;;;;;;5094036;28;20075;-28
2023/10/04 12:27:44;;;;;;;6.38;2.67;;;19.90;83.90;;;;;;5093365;28;20123;-28
2023/10/04 12:30:14;;;;;;;6.43;2.60;;;20.60;67.50;;;;;;5074266;28;20054;-28
2023/10/04 12:32:41;;;;;;;5.80;2.80;;;20.60;83.80;;;;;;5091142;28;20044;-28
2023/10/04 12:35:09;;;;;;;6.68;2.92;;;;;;;;;;5096156;28;20119;-28
2023/10/04 12:37:36;;;;;;;7.07;2.92;;;21.20;78.40;;;;;;5100680;28;20047;-27
2023/10/04 12:40:14;;;;;;;6.28;3.03;;;19.50;83.10;;;;;;5110532;28;20044;-28
2023/10/04 12:42:42;;;;;;;7.95;3.00;;;20.50;74.10;;;;;;5094258;28;20086;-28
2023/10/04 12:45:11;;;;;;;8.00;3.20;;;20.20;83.60;;;;;;5093782;28;20127;-28
2023/10/04 12:47:38;;;;;;;7.10;3.00;;;20.50;83.70;;;;;;5093825;28;20059;-28
2023/10/04 12:50:05;;;;;;;7.22;2.95;;;21.20;74.40;;;;;;5093632;28;20050;-28
2023/10/04 12:52:32;;;;;;;5.80;3.08;;;21.10;84.40;;;;;;5094084;28;20079;-29
2023/10/04 12:54:59;;;;;;;7.25;2.95;;;21.20;84.00;;;;;;5093968;28;20127;-27
2023/10/04 12:57:27;;;;;;;6.75;2.83;;;20.40;84.20;;;;;;5093533;28;20131;-27
2023/10/04 12:59:55;;;;;;;7.30;2.88;;;;;;;;;;5092878;28;20044;-28
2023/10/04 13:02:22;;;;;;;6.90;2.70;;;20.10;83.50;;;;;;5093645;28;20055;-27
2023/10/04 13:04:51;;;;;;;7.88;2.78;;;19.60;76.50;;;;;;5093355;28;20127;-28
2023/10/04 13:07:19;;;;;;;7.75;3.13;;;19.70;83.40;;;;;;5092885;28;20131;-33
2023/10/04 13:09:46;;;;;;;5.72;2.90;;;;;;;;;;5093007;28;20428;-32
2023/10/04 13:12:13;;;;;;;6.80;2.67;;;;;;;;;;5093311;28;20052;-33
2023/10/04 13:14:42;;;;;;;6.50;2.92;;;20.40;84.30;;;;;;5093142;28;20093;-34
2023/10/04 13:17:11;;;;;;;5.10;2.45;;;;;;;;;;5090349;28;20047;-32